Crompton Hill, Indiana
Current Conditions -  °F | °C
As of 9:15 PM on Friday 28 Nov 2014 (Local Time) from KPRG Reporting Station
Clear Clear  
Wind Chill: 26°   Ceiling: Unl
Heat Index: 35°   Visibility: 10mi
Dew Point: 30°   Wind: 13mph
Humidity: 81%   Direction: 160°SSE
Pressure: 30.01"   Gusts: NA
Location:  39.6513°N, 87.4607°W
Report Text: KPRG 290215Z AUTO 16011KT 10SM CLR 02/M01 A3001 RMK AO2 T00171013
Loading
Personal Weather Stations






























Interactive Weather Map New forecast layout! Learn more

10-Day Weather Forecast

Advertisements
Track Severe Weather on mobile